createdAt,value
2017-10-30T00:01:10.724Z,959.42
2017-10-30T00:02:19.298Z,959.45
2017-10-30T00:04:04.193Z,959.52
2017-10-30T00:05:04.123Z,959.51
2017-10-30T00:06:57.552Z,959.53
2017-10-30T00:07:57.519Z,959.49
2017-10-30T00:09:50.913Z,959.49
2017-10-30T00:10:50.972Z,959.51
2017-10-30T00:12:44.334Z,959.47
2017-10-30T00:13:44.384Z,959.44
2017-10-30T00:15:38.758Z,959.46
2017-10-30T00:16:38.662Z,959.50
2017-10-30T00:18:32.057Z,959.58
2017-10-30T00:19:32.118Z,959.58
2017-10-30T00:21:25.475Z,959.54
2017-10-30T00:22:25.449Z,959.52
2017-10-30T00:24:18.876Z,959.58
2017-10-30T00:25:18.842Z,959.61
2017-10-30T00:27:12.196Z,959.64
2017-10-30T00:28:12.224Z,959.64
2017-10-30T00:30:05.667Z,959.66
2017-10-30T00:31:13.224Z,959.65
2017-10-30T00:32:59.026Z,959.66
2017-10-30T00:33:59.035Z,959.68
2017-10-30T00:35:52.387Z,959.68
2017-10-30T00:36:52.437Z,959.71
2017-10-30T00:38:46.956Z,959.78
2017-10-30T00:39:46.818Z,959.78
2017-10-30T00:41:40.237Z,959.79
2017-10-30T00:42:49.765Z,959.78
2017-10-30T00:44:33.588Z,959.77
2017-10-30T00:45:33.627Z,959.83
2017-10-30T00:47:26.973Z,959.84
2017-10-30T00:48:26.992Z,959.87
2017-10-30T00:50:21.447Z,959.88
2017-10-30T00:51:21.361Z,959.87
2017-10-30T00:53:22.304Z,959.91
2017-10-30T00:54:14.790Z,959.91
2017-10-30T00:56:08.139Z,959.95
2017-10-30T00:57:08.139Z,959.93
2017-10-30T00:59:01.539Z,959.91
2017-10-30T01:00:01.527Z,959.86
2017-10-30T01:02:03.526Z,959.77
2017-10-30T01:02:55.968Z,959.76
2017-10-30T01:04:49.429Z,959.76
2017-10-30T01:05:49.462Z,959.80
2017-10-30T01:07:43.327Z,959.80
2017-10-30T01:08:42.828Z,959.82
2017-10-30T01:10:36.241Z,959.89
2017-10-30T01:11:36.535Z,959.93
2017-10-30T01:13:30.636Z,959.90
2017-10-30T01:14:31.212Z,959.95
2017-10-30T01:16:25.021Z,959.95
2017-10-30T01:17:25.077Z,959.97
2017-10-30T01:19:18.388Z,959.91
2017-10-30T01:20:18.421Z,959.88
2017-10-30T01:22:11.811Z,959.90
2017-10-30T01:23:11.791Z,959.86
2017-10-30T01:25:05.165Z,959.88
2017-10-30T01:26:05.165Z,959.90
2017-10-30T01:27:58.596Z,959.98
2017-10-30T01:28:58.577Z,960.00
2017-10-30T01:30:51.992Z,960.04
2017-10-30T01:31:51.934Z,960.05
2017-10-30T01:33:45.334Z,960.06
2017-10-30T01:34:45.336Z,960.05
2017-10-30T01:36:38.788Z,960.08
2017-10-30T01:37:38.766Z,960.06
2017-10-30T01:39:32.161Z,960.11
2017-10-30T01:40:32.096Z,960.13
2017-10-30T01:42:25.511Z,960.14
2017-10-30T01:43:25.509Z,960.15
2017-10-30T01:45:18.861Z,960.16
2017-10-30T01:46:18.906Z,960.12
2017-10-30T01:48:12.297Z,960.13
2017-10-30T01:49:12.273Z,960.09
2017-10-30T01:51:05.645Z,960.07
2017-10-30T01:52:05.664Z,960.12
2017-10-30T01:53:59.108Z,960.15
2017-10-30T01:54:59.076Z,960.14
2017-10-30T01:56:53.485Z,960.14
2017-10-30T01:57:53.447Z,960.11
2017-10-30T01:59:46.838Z,960.09
2017-10-30T02:00:46.893Z,960.07
2017-10-30T02:02:40.196Z,960.11
2017-10-30T02:03:40.242Z,960.10
2017-10-30T02:05:41.174Z,960.11
2017-10-30T02:06:33.589Z,960.12
2017-10-30T02:08:26.969Z,960.17
2017-10-30T02:09:26.987Z,960.17
2017-10-30T02:11:20.406Z,960.20
2017-10-30T02:12:20.379Z,960.24
2017-10-30T02:14:13.745Z,960.28
2017-10-30T02:15:13.785Z,960.26
2017-10-30T02:17:07.175Z,960.27
2017-10-30T02:18:07.153Z,960.31
2017-10-30T02:20:01.567Z,960.33
2017-10-30T02:21:01.588Z,960.35
2017-10-30T02:22:54.966Z,960.32
2017-10-30T02:23:54.890Z,960.31
2017-10-30T02:25:48.324Z,960.33
2017-10-30T02:26:48.339Z,960.29
2017-10-30T02:28:41.746Z,960.33
2017-10-30T02:29:41.752Z,960.35
2017-10-30T02:31:35.160Z,960.37
2017-10-30T02:32:35.100Z,960.40
2017-10-30T02:34:28.495Z,960.41
2017-10-30T02:35:28.517Z,960.40
2017-10-30T02:37:21.940Z,960.35
2017-10-30T02:38:21.900Z,960.39
2017-10-30T02:40:15.310Z,960.39
2017-10-30T02:41:15.294Z,960.43
2017-10-30T02:43:09.685Z,960.45
2017-10-30T02:44:09.703Z,960.48
2017-10-30T02:46:02.993Z,960.59
2017-10-30T02:47:03.017Z,960.61
2017-10-30T02:48:56.446Z,960.58
2017-10-30T02:49:56.416Z,960.64
2017-10-30T02:51:49.897Z,960.63
2017-10-30T02:52:57.503Z,960.61
2017-10-30T02:54:43.240Z,960.57
2017-10-30T02:55:43.209Z,960.62
2017-10-30T02:57:36.650Z,960.58
2017-10-30T02:58:36.587Z,960.61
2017-10-30T03:00:31.034Z,960.59
2017-10-30T03:01:31.027Z,960.60
2017-10-30T03:03:24.360Z,960.61
2017-10-30T03:04:24.399Z,960.64
2017-10-30T03:06:17.776Z,960.64
2017-10-30T03:07:17.817Z,960.67
2017-10-30T03:09:11.202Z,960.69
2017-10-30T03:10:11.140Z,960.67
2017-10-30T03:12:04.574Z,960.67
2017-10-30T03:13:04.543Z,960.70
2017-10-30T03:14:58.929Z,960.75
2017-10-30T03:15:58.946Z,960.78
2017-10-30T03:17:52.321Z,960.81
2017-10-30T03:18:52.302Z,960.80
2017-10-30T03:20:46.733Z,960.83
2017-10-30T03:21:46.670Z,960.87
2017-10-30T03:23:40.108Z,960.89
2017-10-30T03:24:40.088Z,960.88
2017-10-30T03:26:33.487Z,960.89
2017-10-30T03:27:33.497Z,960.90
2017-10-30T03:29:26.925Z,960.92
2017-10-30T03:30:26.882Z,960.93
2017-10-30T03:32:21.243Z,960.93
2017-10-30T03:33:21.292Z,960.96
2017-10-30T03:35:14.660Z,960.99
2017-10-30T03:36:14.655Z,961.01
2017-10-30T03:38:09.058Z,961.03
2017-10-30T03:39:09.014Z,961.04
2017-10-30T03:41:03.423Z,960.99
2017-10-30T03:42:03.420Z,961.03
2017-10-30T03:43:56.793Z,961.02
2017-10-30T03:44:56.812Z,961.02
2017-10-30T03:46:50.179Z,961.05
2017-10-30T03:47:57.777Z,961.07
2017-10-30T03:49:43.554Z,961.11
2017-10-30T03:50:43.649Z,961.15
2017-10-30T03:52:37.052Z,961.18
2017-10-30T03:53:37.003Z,961.21
2017-10-30T03:55:31.361Z,961.24
2017-10-30T03:56:31.406Z,961.26
2017-10-30T03:58:25.777Z,961.26
2017-10-30T03:59:25.780Z,961.23
2017-10-30T04:01:19.222Z,961.25
2017-10-30T04:02:19.186Z,961.22
2017-10-30T04:04:12.639Z,961.25
2017-10-30T04:05:20.125Z,961.27
2017-10-30T04:07:06.075Z,961.27
2017-10-30T04:08:05.956Z,961.27
2017-10-30T04:10:00.343Z,961.31
2017-10-30T04:11:00.384Z,961.25
2017-10-30T04:12:53.802Z,961.24
2017-10-30T04:13:53.729Z,961.22
2017-10-30T04:15:47.165Z,961.29
2017-10-30T04:16:47.102Z,961.25
2017-10-30T04:18:41.554Z,961.27
2017-10-30T04:19:41.494Z,961.22
2017-10-30T04:21:34.910Z,961.20
2017-10-30T04:22:42.429Z,961.21
2017-10-30T04:24:28.282Z,961.20
2017-10-30T04:25:28.286Z,961.17
2017-10-30T04:27:21.712Z,961.18
2017-10-30T04:28:21.676Z,961.20
2017-10-30T04:30:25.170Z,961.21
2017-10-30T04:31:16.017Z,961.22
2017-10-30T04:33:09.392Z,961.24
2017-10-30T04:34:09.431Z,961.27
2017-10-30T04:36:02.798Z,961.25
2017-10-30T04:37:02.796Z,961.25
2017-10-30T04:38:56.271Z,961.29
2017-10-30T04:39:56.205Z,961.34
2017-10-30T04:41:49.664Z,961.36
2017-10-30T04:42:49.560Z,961.32
2017-10-30T04:44:43.006Z,961.37
2017-10-30T04:45:43.017Z,961.38
2017-10-30T04:47:36.355Z,961.35
2017-10-30T04:48:36.364Z,961.38
2017-10-30T04:50:29.825Z,961.32
2017-10-30T04:51:29.762Z,961.32
2017-10-30T04:53:23.220Z,961.36
2017-10-30T04:54:23.184Z,961.39
2017-10-30T04:56:16.554Z,961.36
2017-10-30T04:57:16.534Z,961.38
2017-10-30T04:59:09.937Z,961.36
2017-10-30T05:00:09.937Z,961.34
2017-10-30T05:02:03.419Z,961.37
2017-10-30T05:03:03.326Z,961.39
2017-10-30T05:04:56.679Z,961.40
2017-10-30T05:05:56.746Z,961.39
2017-10-30T05:07:50.193Z,961.43
2017-10-30T05:08:50.183Z,961.47
2017-10-30T05:10:44.496Z,961.49
2017-10-30T05:11:52.074Z,961.49
2017-10-30T05:13:37.895Z,961.47
2017-10-30T05:14:37.913Z,961.51
2017-10-30T05:16:31.263Z,961.55
2017-10-30T05:17:31.292Z,961.56
2017-10-30T05:19:24.702Z,961.56
2017-10-30T05:20:24.718Z,961.59
2017-10-30T05:22:18.122Z,961.61
2017-10-30T05:23:18.109Z,961.59
2017-10-30T05:25:11.462Z,961.62
2017-10-30T05:26:11.441Z,961.65
2017-10-30T05:28:04.856Z,961.71
2017-10-30T05:29:04.818Z,961.72
2017-10-30T05:30:58.262Z,961.74
2017-10-30T05:31:58.224Z,961.74
2017-10-30T05:33:51.648Z,961.75
2017-10-30T05:34:51.692Z,961.70
2017-10-30T05:36:45.026Z,961.69
2017-10-30T05:37:45.075Z,961.70
2017-10-30T05:39:46.894Z,961.69
2017-10-30T05:40:38.443Z,961.69
2017-10-30T05:42:31.793Z,961.72
2017-10-30T05:43:31.771Z,961.77
2017-10-30T05:45:25.209Z,961.73
2017-10-30T05:46:25.184Z,961.74
2017-10-30T05:48:18.500Z,961.78
2017-10-30T05:49:18.566Z,961.81
2017-10-30T05:51:11.972Z,961.83
2017-10-30T05:52:11.938Z,961.84
2017-10-30T05:54:05.299Z,961.87
2017-10-30T05:55:05.306Z,961.89
2017-10-30T05:56:58.750Z,961.87
2017-10-30T05:57:58.711Z,961.91
2017-10-30T05:59:53.132Z,961.90
2017-10-30T06:01:00.659Z,961.88
2017-10-30T06:02:46.491Z,961.91
2017-10-30T06:03:46.549Z,961.93
2017-10-30T06:05:39.902Z,961.88
2017-10-30T06:06:39.879Z,961.92
2017-10-30T06:08:33.439Z,961.97
2017-10-30T06:09:33.268Z,961.98
2017-10-30T06:11:26.675Z,961.99
2017-10-30T06:12:26.641Z,962.03
2017-10-30T06:14:20.019Z,962.02
2017-10-30T06:15:20.078Z,961.99
2017-10-30T06:17:13.433Z,961.98
2017-10-30T06:18:13.465Z,961.99
2017-10-30T06:20:06.921Z,962.04
2017-10-30T06:21:14.474Z,961.98
2017-10-30T06:23:00.236Z,962.11
2017-10-30T06:24:00.266Z,962.14
2017-10-30T06:25:53.579Z,962.09
2017-10-30T06:26:53.583Z,962.06
2017-10-30T06:28:55.584Z,962.06
2017-10-30T06:29:54.704Z,962.11
2017-10-30T06:31:49.048Z,962.19
2017-10-30T06:32:49.012Z,962.21
2017-10-30T06:34:34.912Z,962.25
2017-10-30T06:35:34.770Z,962.28
2017-10-30T06:37:28.206Z,962.34
2017-10-30T06:38:28.165Z,962.35
2017-10-30T06:40:30.170Z,962.38
2017-10-30T06:41:21.564Z,962.42
2017-10-30T06:43:15.969Z,962.40
2017-10-30T06:44:15.937Z,962.37
2017-10-30T06:46:09.347Z,962.35
2017-10-30T06:47:09.356Z,962.34
2017-10-30T06:49:02.668Z,962.33
2017-10-30T06:50:02.683Z,962.35
2017-10-30T06:51:56.078Z,962.35
2017-10-30T06:52:56.073Z,962.37
2017-10-30T06:54:49.437Z,962.41
2017-10-30T06:55:49.498Z,962.44
2017-10-30T06:57:42.877Z,962.49
2017-10-30T06:58:42.819Z,962.48
2017-10-30T07:00:36.244Z,962.55
2017-10-30T07:01:36.226Z,962.59
2017-10-30T07:03:30.645Z,962.61
2017-10-30T07:04:30.632Z,962.59
2017-10-30T07:06:24.088Z,962.64
2017-10-30T07:07:24.114Z,962.65
2017-10-30T07:09:17.458Z,962.72
2017-10-30T07:10:17.484Z,962.73
2017-10-30T07:12:10.825Z,962.77
2017-10-30T07:13:10.833Z,962.79
2017-10-30T07:15:04.251Z,962.84
2017-10-30T07:16:04.247Z,962.88
2017-10-30T07:17:57.610Z,962.92
2017-10-30T07:18:57.617Z,962.95
2017-10-30T07:20:51.064Z,962.98
2017-10-30T07:21:51.025Z,962.94
2017-10-30T07:23:44.455Z,962.99
2017-10-30T07:24:44.405Z,962.95
2017-10-30T07:26:37.827Z,962.94
2017-10-30T07:27:37.820Z,962.99
2017-10-30T07:29:31.220Z,962.97
2017-10-30T07:30:31.204Z,962.98
2017-10-30T07:32:24.553Z,963.03
2017-10-30T07:33:24.590Z,963.04
2017-10-30T07:35:17.981Z,963.04
2017-10-30T07:36:18.022Z,963.00
2017-10-30T07:38:11.380Z,963.03
2017-10-30T07:39:11.359Z,963.03
2017-10-30T07:41:05.765Z,963.04
2017-10-30T07:42:05.719Z,963.06
2017-10-30T07:43:59.137Z,963.10
2017-10-30T07:44:59.175Z,963.12
2017-10-30T07:46:52.499Z,963.17
2017-10-30T07:47:52.584Z,963.13
2017-10-30T07:49:46.007Z,963.15
2017-10-30T07:50:45.971Z,963.14
2017-10-30T07:52:39.297Z,963.17
2017-10-30T07:53:39.306Z,963.19
2017-10-30T07:55:32.741Z,963.16
2017-10-30T07:56:32.701Z,963.18
2017-10-30T07:58:26.114Z,963.15
2017-10-30T07:59:26.186Z,963.17
2017-10-30T08:01:19.487Z,963.15
2017-10-30T08:02:19.506Z,963.18
2017-10-30T08:04:12.883Z,963.18
2017-10-30T08:05:12.863Z,963.17
2017-10-30T08:07:06.355Z,963.19
2017-10-30T08:08:06.337Z,963.19
2017-10-30T08:09:59.709Z,963.18
2017-10-30T08:10:59.696Z,963.19
2017-10-30T08:12:53.088Z,963.18
2017-10-30T08:13:53.101Z,963.19
2017-10-30T08:15:46.454Z,963.21
2017-10-30T08:16:46.500Z,963.20
2017-10-30T08:18:40.886Z,963.16
2017-10-30T08:19:40.866Z,963.14
2017-10-30T08:21:35.259Z,963.14
2017-10-30T08:22:35.258Z,963.11
2017-10-30T08:24:28.666Z,963.17
2017-10-30T08:25:28.632Z,963.18
2017-10-30T08:27:22.032Z,963.18
2017-10-30T08:28:22.062Z,963.21
2017-10-30T08:30:15.404Z,963.26
2017-10-30T08:31:15.436Z,963.28
2017-10-30T08:33:08.830Z,963.28
2017-10-30T08:34:08.858Z,963.29
2017-10-30T08:36:02.162Z,963.31
2017-10-30T08:37:02.164Z,963.34
2017-10-30T08:38:55.615Z,963.32
2017-10-30T08:39:55.638Z,963.32
2017-10-30T08:41:48.978Z,963.34
2017-10-30T08:42:49.034Z,963.33
2017-10-30T08:44:43.399Z,963.30
2017-10-30T08:45:43.414Z,963.33
2017-10-30T08:47:36.783Z,963.35
2017-10-30T08:48:36.800Z,963.37
2017-10-30T08:50:30.360Z,963.30
2017-10-30T08:51:37.739Z,963.25
2017-10-30T08:53:23.510Z,963.31
2017-10-30T08:54:31.153Z,963.31
2017-10-30T08:56:16.992Z,963.29
2017-10-30T08:57:17.016Z,963.33
2017-10-30T08:59:10.475Z,963.25
2017-10-30T09:00:10.389Z,963.27
2017-10-30T09:02:03.705Z,963.26
2017-10-30T09:03:03.753Z,963.26
2017-10-30T09:04:57.139Z,963.29
2017-10-30T09:05:57.168Z,963.32
2017-10-30T09:07:50.485Z,963.39
2017-10-30T09:08:50.556Z,963.35
2017-10-30T09:10:44.138Z,963.41
2017-10-30T09:11:43.958Z,963.43
2017-10-30T09:13:37.360Z,963.47
2017-10-30T09:14:37.302Z,963.55
2017-10-30T09:16:30.690Z,963.55
2017-10-30T09:17:30.681Z,963.59
2017-10-30T09:19:24.057Z,963.55
2017-10-30T09:20:24.116Z,963.56
2017-10-30T09:22:17.482Z,963.57
2017-10-30T09:23:17.514Z,963.55
2017-10-30T09:25:10.881Z,963.54
2017-10-30T09:26:10.840Z,963.54
2017-10-30T09:28:04.263Z,963.56
2017-10-30T09:29:04.270Z,963.58
2017-10-30T09:30:57.618Z,963.54
2017-10-30T09:31:57.646Z,963.60
2017-10-30T09:33:51.049Z,963.61
2017-10-30T09:34:51.060Z,963.62
2017-10-30T09:36:44.399Z,963.71
2017-10-30T09:37:44.416Z,963.73
2017-10-30T09:39:37.822Z,963.75
2017-10-30T09:40:37.807Z,963.75
2017-10-30T09:42:31.195Z,963.81
2017-10-30T09:43:31.297Z,963.85
2017-10-30T09:45:24.636Z,963.83
2017-10-30T09:46:24.630Z,963.86
2017-10-30T09:48:18.021Z,963.77
2017-10-30T09:49:18.010Z,963.81
2017-10-30T09:51:11.393Z,963.90
2017-10-30T09:52:11.423Z,963.89
2017-10-30T09:54:04.797Z,963.83
2017-10-30T09:55:04.805Z,963.86
2017-10-30T09:56:58.197Z,963.89
2017-10-30T09:57:58.225Z,963.90
2017-10-30T09:59:51.682Z,963.95
2017-10-30T10:00:51.674Z,964.20
2017-10-30T10:02:45.009Z,964.13
2017-10-30T10:03:45.046Z,964.09
2017-10-30T10:05:38.443Z,964.19
2017-10-30T10:06:38.461Z,964.21
2017-10-30T10:08:31.824Z,964.23
2017-10-30T10:09:31.822Z,964.33
2017-10-30T10:11:25.238Z,964.37
2017-10-30T10:12:25.218Z,964.32
2017-10-30T10:14:18.638Z,964.27
2017-10-30T10:15:18.657Z,964.20
2017-10-30T10:17:11.978Z,964.27
2017-10-30T10:18:12.024Z,964.14
2017-10-30T10:20:05.459Z,964.14
2017-10-30T10:21:05.447Z,964.24
2017-10-30T10:22:58.841Z,964.13
2017-10-30T10:23:58.802Z,964.24
2017-10-30T10:25:52.193Z,964.15
2017-10-30T10:26:52.259Z,964.16
2017-10-30T10:28:45.666Z,964.29
2017-10-30T10:29:45.649Z,964.28
2017-10-30T10:31:39.070Z,964.36
2017-10-30T10:32:39.068Z,964.39
2017-10-30T10:34:32.425Z,964.39
2017-10-30T10:35:32.467Z,964.45
2017-10-30T10:37:25.902Z,964.41
2017-10-30T10:38:25.881Z,964.45
2017-10-30T10:40:20.260Z,964.45
2017-10-30T10:41:20.291Z,964.60
2017-10-30T10:43:13.689Z,964.62
2017-10-30T10:44:13.701Z,964.57
2017-10-30T10:46:07.128Z,964.62
2017-10-30T10:47:07.163Z,964.63
2017-10-30T10:49:00.567Z,964.64
2017-10-30T10:50:00.544Z,964.61
2017-10-30T10:51:53.982Z,964.61
2017-10-30T10:52:54.008Z,964.62
2017-10-30T10:54:47.396Z,964.65
2017-10-30T10:55:47.402Z,964.63
2017-10-30T10:57:40.837Z,964.69
2017-10-30T10:58:40.842Z,964.18
2017-10-30T11:00:34.267Z,964.75
2017-10-30T11:01:34.237Z,964.14
2017-10-30T11:03:27.606Z,964.12
2017-10-30T11:04:27.663Z,964.07
2017-10-30T11:06:21.084Z,964.22
2017-10-30T11:07:21.126Z,964.05
2017-10-30T11:09:14.504Z,964.03
2017-10-30T11:10:14.525Z,964.09
2017-10-30T11:12:07.986Z,964.06
2017-10-30T11:13:08.000Z,964.12
2017-10-30T11:15:01.355Z,964.33
2017-10-30T11:16:01.502Z,964.01
2017-10-30T11:17:55.808Z,963.94
2017-10-30T11:18:55.822Z,963.89
2017-10-30T11:20:49.152Z,963.84
2017-10-30T11:21:49.739Z,963.84
2017-10-30T11:23:43.678Z,963.83
2017-10-30T11:24:43.674Z,963.83
2017-10-30T11:26:37.045Z,963.85
2017-10-30T11:27:36.994Z,963.88
2017-10-30T11:29:30.559Z,963.85
2017-10-30T11:30:30.444Z,963.84
2017-10-30T11:32:23.894Z,963.88
2017-10-30T11:33:23.874Z,963.84
2017-10-30T11:35:17.311Z,963.83
2017-10-30T11:36:17.366Z,963.81
2017-10-30T11:38:10.831Z,963.83
2017-10-30T11:39:10.732Z,963.84
2017-10-30T11:41:04.147Z,963.90
2017-10-30T11:42:04.137Z,963.95
2017-10-30T11:43:58.565Z,963.97
2017-10-30T11:44:58.540Z,963.98
2017-10-30T11:46:52.274Z,964.02
2017-10-30T11:47:51.935Z,964.03
2017-10-30T11:49:45.538Z,963.97
2017-10-30T11:50:45.367Z,964.01
2017-10-30T11:52:38.860Z,963.99
2017-10-30T11:53:38.793Z,964.03
2017-10-30T11:55:32.614Z,963.98
2017-10-30T11:56:32.492Z,963.97
2017-10-30T11:58:26.659Z,963.94
2017-10-30T11:59:26.721Z,963.94
2017-10-30T12:01:20.125Z,963.96
2017-10-30T12:02:20.103Z,963.96
2017-10-30T12:04:23.068Z,963.95
2017-10-30T12:05:23.051Z,963.94
2017-10-30T12:07:15.432Z,963.94
2017-10-30T12:08:08.085Z,963.96
2017-10-30T12:10:09.833Z,963.97
2017-10-30T12:11:10.940Z,963.96
2017-10-30T12:12:57.776Z,963.96
2017-10-30T12:13:57.692Z,963.96
2017-10-30T12:15:51.163Z,963.98
2017-10-30T12:16:59.755Z,963.95
2017-10-30T12:18:44.507Z,963.94
2017-10-30T12:19:44.517Z,963.96
2017-10-30T12:21:37.891Z,963.99
2017-10-30T12:22:47.406Z,963.99
2017-10-30T12:24:31.379Z,964.01
2017-10-30T12:25:31.251Z,964.00
2017-10-30T12:27:24.790Z,964.03
2017-10-30T12:28:24.785Z,964.03
2017-10-30T12:30:19.149Z,964.06
2017-10-30T12:31:19.178Z,964.04
2017-10-30T12:33:12.527Z,964.05
2017-10-30T12:34:12.503Z,964.07
2017-10-30T12:36:05.881Z,964.07
2017-10-30T12:37:05.844Z,964.09
2017-10-30T12:38:59.243Z,964.09
2017-10-30T12:39:59.395Z,964.09
2017-10-30T12:41:53.776Z,964.10
2017-10-30T12:42:53.734Z,964.11
2017-10-30T12:44:48.156Z,964.10
2017-10-30T12:45:48.088Z,964.10
2017-10-30T12:47:41.513Z,964.26
2017-10-30T12:48:41.430Z,964.20
2017-10-30T12:50:34.992Z,964.22
2017-10-30T12:51:34.789Z,964.20
2017-10-30T12:53:28.183Z,964.17
2017-10-30T12:54:28.249Z,964.21
2017-10-30T12:56:21.707Z,964.24
2017-10-30T12:57:21.707Z,964.25
2017-10-30T12:59:16.159Z,964.15
2017-10-30T13:00:16.070Z,964.14
2017-10-30T13:02:09.455Z,964.17
2017-10-30T13:03:09.490Z,964.17
2017-10-30T13:05:03.029Z,964.12
2017-10-30T13:06:02.907Z,964.10
2017-10-30T13:07:57.222Z,964.13
2017-10-30T13:08:57.209Z,964.13
2017-10-30T13:10:50.753Z,964.16
2017-10-30T13:11:50.526Z,964.16
2017-10-30T13:13:44.113Z,964.15
2017-10-30T13:14:43.957Z,964.13
2017-10-30T13:16:37.795Z,964.03
2017-10-30T13:17:37.395Z,964.04
2017-10-30T13:19:30.950Z,964.10
2017-10-30T13:20:31.056Z,964.10
2017-10-30T13:22:24.509Z,964.12
2017-10-30T13:23:24.568Z,964.13
2017-10-30T13:25:17.873Z,964.13
2017-10-30T13:26:17.797Z,964.15
2017-10-30T13:28:12.174Z,964.13
2017-10-30T13:29:12.487Z,964.12
2017-10-30T13:31:05.807Z,964.11
2017-10-30T13:32:05.580Z,964.12
2017-10-30T13:33:59.092Z,964.13
2017-10-30T13:34:59.122Z,964.13
2017-10-30T13:36:53.407Z,964.18
2017-10-30T13:37:53.516Z,964.16
2017-10-30T13:39:48.081Z,964.21
2017-10-30T13:40:47.945Z,964.22
2017-10-30T13:42:42.487Z,964.27
2017-10-30T13:43:42.284Z,964.32
2017-10-30T13:45:35.894Z,964.34
2017-10-30T13:46:35.820Z,964.30
2017-10-30T13:48:29.259Z,964.38
2017-10-30T13:49:29.276Z,964.38
2017-10-30T13:51:22.734Z,964.36
2017-10-30T13:52:22.609Z,964.35
2017-10-30T13:54:16.155Z,964.37
2017-10-30T13:55:16.064Z,964.37
2017-10-30T13:57:09.651Z,964.34
2017-10-30T13:58:09.124Z,964.34
2017-10-30T14:00:02.545Z,964.35
2017-10-30T14:01:02.753Z,964.36
2017-10-30T14:02:56.077Z,964.39
2017-10-30T14:03:56.029Z,964.36
2017-10-30T14:05:50.616Z,964.38
2017-10-30T14:06:50.500Z,964.40
2017-10-30T14:08:45.079Z,964.38
2017-10-30T14:09:44.934Z,964.39
2017-10-30T14:11:38.518Z,964.39
2017-10-30T14:12:38.323Z,964.35
2017-10-30T14:14:32.757Z,964.36
2017-10-30T14:15:32.671Z,964.34
2017-10-30T14:17:26.193Z,964.33
2017-10-30T14:18:25.986Z,964.34
2017-10-30T14:20:20.630Z,964.37
2017-10-30T14:21:20.402Z,964.38
2017-10-30T14:23:14.035Z,964.40
2017-10-30T14:24:13.902Z,964.39
2017-10-30T14:26:08.476Z,964.43
2017-10-30T14:27:08.292Z,964.42
2017-10-30T14:29:02.908Z,964.45
2017-10-30T14:30:02.729Z,964.44
2017-10-30T14:31:57.046Z,964.45
2017-10-30T14:32:57.301Z,964.43
2017-10-30T14:34:51.505Z,964.42
2017-10-30T14:35:51.834Z,964.43
2017-10-30T14:37:45.122Z,964.40
2017-10-30T14:38:44.807Z,964.42
2017-10-30T14:40:38.312Z,964.42
2017-10-30T14:41:38.349Z,964.46
2017-10-30T14:43:32.791Z,964.46
2017-10-30T14:44:32.747Z,964.51
2017-10-30T14:46:26.164Z,964.50
2017-10-30T14:47:26.076Z,964.46
2017-10-30T14:49:19.736Z,964.51
2017-10-30T14:50:19.651Z,964.50
2017-10-30T14:52:12.895Z,964.51
2017-10-30T14:53:12.831Z,964.48
2017-10-30T14:55:06.357Z,964.51
2017-10-30T14:56:06.305Z,964.50
2017-10-30T14:57:59.855Z,964.48
2017-10-30T14:58:59.671Z,964.54
2017-10-30T15:00:53.127Z,964.49
2017-10-30T15:01:53.131Z,964.51
2017-10-30T15:03:46.467Z,964.57
2017-10-30T15:04:46.516Z,964.57
2017-10-30T15:06:39.952Z,964.59
2017-10-30T15:07:39.929Z,964.60
2017-10-30T15:09:33.284Z,964.63
2017-10-30T15:10:33.268Z,964.60
2017-10-30T15:12:26.700Z,964.61
2017-10-30T15:13:26.662Z,964.62
2017-10-30T15:15:21.099Z,964.63
2017-10-30T15:16:21.053Z,964.63
2017-10-30T15:18:15.057Z,964.68
2017-10-30T15:19:14.458Z,964.65
2017-10-30T15:21:07.956Z,964.64
2017-10-30T15:22:07.933Z,964.66
2017-10-30T15:24:01.385Z,964.65
2017-10-30T15:25:01.263Z,964.65
2017-10-30T15:26:54.675Z,964.71
2017-10-30T15:27:54.676Z,964.66
2017-10-30T15:29:48.161Z,964.68
2017-10-30T15:30:48.074Z,964.72
2017-10-30T15:32:41.495Z,964.71
2017-10-30T15:33:41.977Z,964.73
2017-10-30T15:35:36.017Z,964.73
2017-10-30T15:36:35.932Z,964.71
2017-10-30T15:38:29.355Z,964.73
2017-10-30T15:39:29.349Z,964.71
2017-10-30T15:41:23.842Z,964.71
2017-10-30T15:42:23.576Z,964.70
2017-10-30T15:44:17.075Z,964.74
2017-10-30T15:45:17.231Z,964.77
2017-10-30T15:47:10.434Z,964.76
2017-10-30T15:48:10.413Z,964.75
2017-10-30T15:50:03.931Z,964.75
2017-10-30T15:51:03.957Z,964.73
2017-10-30T15:52:58.278Z,964.73
2017-10-30T15:53:58.291Z,964.70
2017-10-30T15:55:51.843Z,964.74
2017-10-30T15:56:51.585Z,964.76
2017-10-30T15:58:52.610Z,964.81
2017-10-30T15:59:52.836Z,964.81
2017-10-30T16:01:39.410Z,964.82
2017-10-30T16:02:39.532Z,964.83
2017-10-30T16:04:33.947Z,964.85
2017-10-30T16:05:33.846Z,964.86
2017-10-30T16:07:27.239Z,964.87
2017-10-30T16:08:27.246Z,964.94
2017-10-30T16:10:20.648Z,964.94
2017-10-30T16:11:20.601Z,964.95
2017-10-30T16:13:14.115Z,964.92
2017-10-30T16:14:14.035Z,964.95
2017-10-30T16:16:07.716Z,964.98
2017-10-30T16:17:07.383Z,964.93
2017-10-30T16:19:02.117Z,964.93
2017-10-30T16:20:01.876Z,964.93
2017-10-30T16:21:56.250Z,965.01
2017-10-30T16:22:56.323Z,965.00
2017-10-30T16:24:49.754Z,965.04
2017-10-30T16:25:49.651Z,965.04
2017-10-30T16:27:43.028Z,965.06
2017-10-30T16:28:43.009Z,965.07
2017-10-30T16:30:36.587Z,965.10
2017-10-30T16:31:36.452Z,965.11
2017-10-30T16:33:29.824Z,965.12
2017-10-30T16:34:30.004Z,965.10
2017-10-30T16:36:23.286Z,965.17
2017-10-30T16:37:23.248Z,965.14
2017-10-30T16:39:16.706Z,965.21
2017-10-30T16:40:16.634Z,965.21
2017-10-30T16:42:10.071Z,965.21
2017-10-30T16:43:10.152Z,965.27
2017-10-30T16:45:03.477Z,965.28
2017-10-30T16:46:11.026Z,965.32
2017-10-30T16:47:56.964Z,965.36
2017-10-30T16:48:56.840Z,965.40
2017-10-30T16:50:50.188Z,965.38
2017-10-30T16:51:50.210Z,965.36
2017-10-30T16:53:44.169Z,965.41
2017-10-30T16:54:43.571Z,965.41
2017-10-30T16:56:36.963Z,965.44
2017-10-30T16:57:37.152Z,965.51
2017-10-30T16:59:30.510Z,965.51
2017-10-30T17:00:30.412Z,965.55
2017-10-30T17:02:23.838Z,965.59
2017-10-30T17:03:23.812Z,965.59
2017-10-30T17:05:17.203Z,965.64
2017-10-30T17:06:17.312Z,965.67
2017-10-30T17:08:10.644Z,965.71
2017-10-30T17:09:12.986Z,965.72
2017-10-30T17:11:14.397Z,965.73
2017-10-30T17:12:03.978Z,965.72
2017-10-30T17:13:57.436Z,965.74
2017-10-30T17:14:58.645Z,965.76
2017-10-30T17:16:51.108Z,965.73
2017-10-30T17:17:50.957Z,965.75
2017-10-30T17:19:44.120Z,965.74
2017-10-30T17:20:44.149Z,965.79
2017-10-30T17:22:37.593Z,965.81
2017-10-30T17:23:37.558Z,965.79
2017-10-30T17:25:31.061Z,965.77
2017-10-30T17:26:30.941Z,965.78
2017-10-30T17:28:24.334Z,965.78
2017-10-30T17:29:24.340Z,965.78
2017-10-30T17:31:17.798Z,965.78
2017-10-30T17:32:17.789Z,965.82
2017-10-30T17:34:11.252Z,965.86
2017-10-30T17:35:11.247Z,965.87
2017-10-30T17:37:04.598Z,965.90
2017-10-30T17:38:04.787Z,965.92
2017-10-30T17:39:57.983Z,965.93
2017-10-30T17:40:58.064Z,965.91
2017-10-30T17:42:52.621Z,965.95
2017-10-30T17:43:52.324Z,965.91
2017-10-30T17:45:46.941Z,965.97
2017-10-30T17:46:46.832Z,965.99
2017-10-30T17:48:41.145Z,965.97
2017-10-30T17:49:41.353Z,966.01
2017-10-30T17:51:34.706Z,966.00
2017-10-30T17:52:34.658Z,966.02
2017-10-30T17:54:28.031Z,966.02
2017-10-30T17:55:28.006Z,966.05
2017-10-30T17:57:22.463Z,966.08
2017-10-30T17:58:22.524Z,966.06
2017-10-30T18:00:17.014Z,966.14
2017-10-30T18:01:16.942Z,966.13
2017-10-30T18:03:10.212Z,966.11